Time;durP1;ratioP1;P1;durP2;ratioP2;P2;SDS_P1;SDS_P2;PMS_P1;PMS_P2;Temp;Humidity;BMP_temperature;BMP_pressure;BME280_temperature;BME280_humidity;BME280_pressure;Samples;Min_cycle;Max_cycle;Signal;HPM_P1;HPM_P2
2021/03/18 00:02:12;;;;;;;2.97;1.50;;;1.60;99.90;;;;;;5012494;28;20029;-90
2021/03/18 00:05:03;;;;;;;5.55;1.88;;;1.60;99.90;;;;;;4991781;28;20464;-91
2021/03/18 00:07:47;;;;;;;8.25;2.92;;;1.60;99.90;;;;;;4998785;28;20037;-91
2021/03/18 00:10:17;;;;;;;;;;;1.60;99.90;;;;;;4995185;28;20049;-90
2021/03/18 00:13:05;;;;;;;4.25;1.80;;;1.50;99.90;;;;;;5012313;28;19919;-90
2021/03/18 00:15:57;;;;;;;5.70;1.90;;;1.50;99.90;;;;;;5008212;28;20045;-90
2021/03/18 00:18:56;;;;;;;6.40;1.70;;;1.50;99.90;;;;;;5029646;28;20094;-90
2021/03/18 00:21:32;;;;;;;5.22;2.13;;;1.50;99.90;;;;;;5016622;28;20109;-90
2021/03/18 00:24:19;;;;;;;8.30;2.05;;;1.40;99.90;;;;;;5027544;28;20499;-91
2021/03/18 00:27:16;;;;;;;;;;;;;;;;;;;;;
2021/03/18 00:29:57;;;;;;;6.28;1.73;;;1.40;99.90;;;;;;5014414;28;20380;-91
2021/03/18 00:32:40;;;;;;;3.25;1.70;;;1.40;99.90;;;;;;5029507;28;20037;-92
2021/03/18 00:35:42;;;;;;;5.43;1.60;;;1.40;99.90;;;;;;5027783;28;20088;-91
2021/03/18 00:38:31;;;;;;;5.30;1.80;;;1.40;99.90;;;;;;4923475;29;20153;-92
2021/03/18 00:41:24;;;;;;;4.60;1.73;;;1.40;99.90;;;;;;4981051;28;20061;-91
2021/03/18 00:47:23;;;;;;;6.22;1.80;;;1.40;99.90;;;;;;4999080;28;20041;-91
2021/03/18 00:49:53;;;;;;;4.75;1.88;;;1.40;99.90;;;;;;4999371;28;20048;-91
2021/03/18 00:53:07;;;;;;;7.43;2.65;;;1.40;99.90;;;;;;4999191;28;20045;-91
2021/03/18 00:55:44;;;;;;;7.68;2.05;;;1.30;99.90;;;;;;5029685;28;20121;-91
2021/03/18 01:01:41;;;;;;;5.93;1.75;;;1.30;99.90;;;;;;4957334;28;20097;-90
2021/03/18 01:04:21;;;;;;;5.60;2.03;;;1.30;99.90;;;;;;5009324;28;20029;-89
2021/03/18 01:06:54;;;;;;;3.83;1.88;;;1.30;99.90;;;;;;5012853;28;20025;-90
2021/03/18 01:09:27;;;;;;;3.58;1.77;;;1.20;99.90;;;;;;5004353;28;20383;-89
2021/03/18 01:12:10;;;;;;;3.17;1.50;;;1.20;99.90;;;;;;5010425;28;20089;-90
2021/03/18 01:15:19;;;;;;;4.85;2.15;;;1.20;99.90;;;;;;5019015;28;20036;-90
2021/03/18 01:21:35;;;;;;;;;;;;;;;;;;;;;
2021/03/18 01:24:33;;;;;;;7.10;2.37;;;1.10;99.90;;;;;;5000067;28;20057;-90
2021/03/18 01:27:29;;;;;;;8.00;2.83;;;1.10;99.90;;;;;;4989330;28;20034;-90
2021/03/18 01:30:19;;;;;;;7.57;2.10;;;1.10;99.90;;;;;;4994147;28;20045;-90
2021/03/18 01:32:58;;;;;;;7.22;1.60;;;1.20;99.90;;;;;;4996187;28;20081;-89
2021/03/18 01:35:58;;;;;;;;;;;;;;;;;;;;;
2021/03/18 01:38:34;;;;;;;4.45;1.92;;;1.20;99.90;;;;;;4967977;28;20056;-90
2021/03/18 01:41:18;;;;;;;5.68;1.75;;;1.20;99.90;;;;;;4995443;28;20157;-90
2021/03/18 01:43:53;;;;;;;2.97;1.40;;;1.20;99.90;;;;;;5013473;28;20022;-90
2021/03/18 01:46:40;;;;;;;5.35;1.80;;;1.20;99.90;;;;;;4996447;28;20038;-90
2021/03/18 01:49:54;;;;;;;4.78;1.35;;;1.20;99.90;;;;;;4997857;28;20044;-91
2021/03/18 01:52:32;;;;;;;4.40;1.80;;;1.20;99.90;;;;;;4990472;28;20033;-91
2021/03/18 01:55:37;;;;;;;;;;;;;;;;;;;;;
2021/03/18 01:58:51;;;;;;;;;;;;;;;;;;;;;
2021/03/18 02:01:42;;;;;;;;;;;1.20;99.90;;;;;;5006926;28;20042;-91
2021/03/18 02:04:37;;;;;;;4.65;1.50;;;1.10;99.90;;;;;;5009085;28;19917;-91
2021/03/18 02:13:42;;;;;;;6.32;1.63;;;1.10;99.90;;;;;;4979724;28;20054;-91
2021/03/18 02:16:17;;;;;;;2.40;1.23;;;1.10;99.90;;;;;;4993046;28;20434;-90
2021/03/18 02:19:25;;;;;;;4.88;1.60;;;1.10;99.90;;;;;;5011231;28;20072;-89
2021/03/18 02:22:26;;;;;;;2.53;1.20;;;1.20;99.90;;;;;;4994142;28;20049;-90
2021/03/18 02:25:14;;;;;;;4.25;1.70;;;1.20;99.90;;;;;;4994886;28;20033;-90
2021/03/18 02:28:19;;;;;;;6.78;1.75;;;1.20;99.90;;;;;;4966631;28;20044;-90
2021/03/18 02:31:26;;;;;;;4.05;1.20;;;1.20;99.90;;;;;;5012475;28;20433;-90
2021/03/18 02:34:31;;;;;;;;;;;;;;;;;;;;;
2021/03/18 02:37:10;;;;;;;6.65;1.70;;;1.20;99.90;;;;;;5005009;28;20045;-91
2021/03/18 02:39:42;;;;;;;4.40;1.60;;;1.20;99.90;;;;;;5009572;28;20041;-90
2021/03/18 02:42:26;;;;;;;;;;;;;;;;;;;;;
2021/03/18 02:45:06;;;;;;;6.05;1.85;;;1.20;99.90;;;;;;4994191;28;20034;-89
2021/03/18 02:47:45;;;;;;;8.32;2.35;;;1.20;99.90;;;;;;4985610;28;20022;-89
2021/03/18 02:50:15;;;;;;;6.80;2.50;;;1.20;99.90;;;;;;5003988;28;20041;-89
2021/03/18 02:52:56;;;;;;;5.95;2.38;;;1.20;99.90;;;;;;5008804;28;20068;-91
2021/03/18 02:55:46;;;;;;;5.22;2.03;;;1.10;99.90;;;;;;4980533;28;20489;-90
2021/03/18 02:58:57;;;;;;;5.07;2.00;;;1.10;99.90;;;;;;5007836;28;20037;-88
2021/03/18 03:01:35;;;;;;;5.22;2.00;;;1.10;99.90;;;;;;4998002;28;20037;-90
2021/03/18 03:04:37;;;;;;;4.40;1.70;;;1.10;99.90;;;;;;4998196;28;20021;-91
2021/03/18 03:07:44;;;;;;;4.07;1.50;;;1.10;99.90;;;;;;4998342;28;20179;-91
2021/03/18 03:10:39;;;;;;;4.15;1.90;;;1.10;99.90;;;;;;4928600;29;20477;-91
2021/03/18 03:16:58;;;;;;;4.13;1.70;;;1.20;99.90;;;;;;5003511;28;20041;-91
2021/03/18 03:19:58;;;;;;;9.30;2.55;;;1.20;99.90;;;;;;4992953;28;20549;-91
2021/03/18 03:23:18;;;;;;;4.72;1.90;;;1.20;99.90;;;;;;5031021;28;20033;-90
2021/03/18 03:26:04;;;;;;;3.03;1.90;;;1.20;99.90;;;;;;5022679;28;20500;-91
2021/03/18 03:29:00;;;;;;;;;;;;;;;;;;;;;
2021/03/18 03:31:51;;;;;;;;;;;;;;;;;;;;;
2021/03/18 03:34:54;;;;;;;3.85;1.88;;;1.20;99.90;;;;;;5036149;28;20041;-91
2021/03/18 03:38:02;;;;;;;;;;;;;;;;;;;;;
2021/03/18 03:41:13;;;;;;;5.55;1.83;;;1.20;99.90;;;;;;5012356;28;20451;-92
2021/03/18 03:43:52;;;;;;;5.70;1.70;;;1.20;99.90;;;;;;4990100;28;20064;-89
2021/03/18 03:46:53;;;;;;;3.28;1.70;;;1.20;99.90;;;;;;5018062;28;20033;-91
2021/03/18 03:49:47;;;;;;;4.07;1.83;;;1.10;99.90;;;;;;5034797;28;20030;-92
2021/03/18 03:52:58;;;;;;;3.10;1.55;;;1.10;99.90;;;;;;5011943;28;20043;-92
2021/03/18 03:56:12;;;;;;;;;;;;;;;;;;;;;
2021/03/18 03:59:15;;;;;;;3.28;1.60;;;1.20;99.90;;;;;;4969680;28;20054;-91
2021/03/18 04:05:30;;;;;;;7.45;2.85;;;1.30;99.90;;;;;;4850658;29;20062;-90
2021/03/18 04:08:15;;;;;;;4.68;2.08;;;1.30;99.90;;;;;;4847494;29;20030;-91
2021/03/18 04:11:26;;;;;;;5.35;2.50;;;1.30;99.90;;;;;;4828325;29;20712;-91
2021/03/18 04:14:59;;;;;;;;;;;;;;;;;;;;;
2021/03/18 04:18:12;;;;;;;6.00;2.60;;;1.10;99.90;;;;;;4771887;30;20055;-92
2021/03/18 04:31:10;;;;;;;7.40;2.80;;;0.90;99.90;;;;;;4784331;30;20039;-91
2021/03/18 04:34:13;;;;;;;4.47;2.30;;;0.90;99.90;;;;;;4753830;29;20466;-92
2021/03/18 04:36:54;;;;;;;4.22;2.35;;;0.80;99.90;;;;;;4819288;29;20138;-91
2021/03/18 04:39:51;;;;;;;6.47;2.33;;;0.80;99.90;;;;;;4795321;29;20042;-92
2021/03/18 04:45:42;;;;;;;6.88;2.38;;;0.80;99.90;;;;;;4927012;29;20400;-90
2021/03/18 04:48:51;;;;;;;5.40;2.75;;;0.80;99.90;;;;;;4965151;28;20031;-91
2021/03/18 04:51:51;;;;;;;6.07;2.65;;;0.90;99.90;;;;;;5015113;28;20096;-91
2021/03/18 04:54:44;;;;;;;4.47;2.72;;;0.90;99.90;;;;;;4983405;28;20033;-91
2021/03/18 05:01:03;;;;;;;;;;;;;;;;;;;;;
2021/03/18 05:04:00;;;;;;;5.22;2.45;;;1.10;99.90;;;;;;5010767;28;20036;-91
2021/03/18 05:06:47;;;;;;;;;;;;;;;;;;;;;
2021/03/18 05:10:31;;;;;;;;;;;;;;;;;;;;;
2021/03/18 05:13:29;;;;;;;;;;;;;;;;;;;;;
2021/03/18 05:16:27;;;;;;;6.80;2.70;;;1.40;99.90;;;;;;4957526;28;20043;-90
2021/03/18 05:19:18;;;;;;;;;;;;;;;;;;;;;
2021/03/18 05:22:19;;;;;;;6.53;2.83;;;1.50;99.90;;;;;;4940138;29;20035;-91
2021/03/18 05:27:44;;;;;;;6.78;3.42;;;1.50;99.90;;;;;;4935952;29;20050;-91
2021/03/18 05:30:38;;;;;;;7.80;2.90;;;1.60;99.90;;;;;;4953678;29;20103;-91
2021/03/18 05:33:31;;;;;;;8.35;2.85;;;1.60;99.90;;;;;;4926380;28;20112;-91
2021/03/18 05:37:02;;;;;;;;;;;;;;;;;;;;;
2021/03/18 05:39:46;;;;;;;5.22;2.50;;;1.60;99.90;;;;;;4921745;29;20032;-92
2021/03/18 05:42:46;;;;;;;9.68;3.20;;;1.60;99.90;;;;;;4907332;29;20044;-93
2021/03/18 05:49:13;;;;;;;5.60;2.40;;;1.60;99.90;;;;;;4914540;29;20108;-92
2021/03/18 05:52:29;;;;;;;;;;;;;;;;;;;;;
2021/03/18 05:55:56;;;;;;;5.38;2.72;;;1.70;99.90;;;;;;4914343;29;20048;-91
2021/03/18 06:10:00;;;;;;;;;;;;;;;;;;;;;
2021/03/18 06:26:05;;;;;;;7.15;3.03;;;1.80;99.90;;;;;;5131140;27;20113;-88
2021/03/18 06:28:32;;;;;;;5.20;2.70;;;1.90;99.90;;;;;;5131284;28;20034;-90
2021/03/18 06:31:04;;;;;;;8.32;3.45;;;1.90;99.90;;;;;;5131630;28;20026;-91
2021/03/18 06:33:32;;;;;;;7.85;2.80;;;1.90;99.90;;;;;;5130768;28;20031;-91
2021/03/18 06:35:58;;;;;;;9.20;3.17;;;1.90;99.90;;;;;;5126267;27;20407;-88
2021/03/18 06:38:32;;;;;;;7.00;3.15;;;2.00;99.90;;;;;;5136241;27;20495;-89
2021/03/18 06:40:59;;;;;;;5.50;3.08;;;2.00;99.90;;;;;;5110925;28;20020;-89
2021/03/18 06:43:43;;;;;;;6.68;3.45;;;2.00;99.90;;;;;;5114872;28;20019;-90
2021/03/18 06:46:27;;;;;;;6.57;3.60;;;2.00;99.90;;;;;;5128849;28;20491;-89
2021/03/18 06:48:52;;;;;;;;;;;2.10;99.90;;;;;;5125692;27;20024;-89
2021/03/18 06:51:23;;;;;;;10.65;2.97;;;2.10;99.90;;;;;;5130823;28;19929;-87
2021/03/18 06:53:49;;;;;;;6.40;2.88;;;2.10;99.90;;;;;;5123113;28;20499;-90
2021/03/18 06:56:32;;;;;;;6.45;3.00;;;2.20;99.90;;;;;;5111718;28;20031;-88
2021/03/18 06:58:58;;;;;;;7.07;3.30;;;2.20;99.90;;;;;;5144122;27;20023;-90
2021/03/18 07:01:27;;;;;;;10.02;3.67;;;2.30;99.90;;;;;;5151254;27;20018;-90
2021/03/18 07:04:03;;;;;;;6.28;3.47;;;2.30;99.90;;;;;;5143269;27;20027;-89
2021/03/18 07:06:37;;;;;;;6.95;3.50;;;2.40;99.90;;;;;;5125191;28;20102;-89
2021/03/18 07:09:11;;;;;;;11.80;3.63;;;2.40;99.90;;;;;;5127558;27;20075;-91
2021/03/18 07:11:44;;;;;;;8.35;3.55;;;2.50;99.90;;;;;;5119768;28;20023;-90
2021/03/18 07:14:11;;;;;;;7.18;3.85;;;2.50;99.90;;;;;;5117089;28;20114;-91
2021/03/18 07:16:45;;;;;;;11.48;4.63;;;2.60;99.90;;;;;;5114011;28;20057;-91
2021/03/18 07:19:23;;;;;;;9.50;4.47;;;2.60;99.90;;;;;;5131264;27;20477;-90
2021/03/18 07:21:49;;;;;;;8.32;4.05;;;2.70;99.90;;;;;;5117520;28;20019;-90
2021/03/18 07:24:38;;;;;;;7.18;4.20;;;2.70;99.90;;;;;;5110303;28;20035;-90
2021/03/18 07:27:10;;;;;;;10.23;4.43;;;2.90;99.90;;;;;;5109666;28;20027;-89
2021/03/18 07:29:45;;;;;;;11.18;5.07;;;3.00;99.90;;;;;;5148457;27;20060;-90
2021/03/18 07:32:13;;;;;;;5.60;3.40;;;3.00;99.90;;;;;;5121639;27;20028;-91
2021/03/18 07:34:40;;;;;;;12.23;5.50;;;3.10;99.90;;;;;;5110177;28;20019;-92
2021/03/18 07:37:10;;;;;;;10.45;4.63;;;3.10;99.90;;;;;;5114332;28;20041;-90
2021/03/18 07:39:38;;;;;;;11.23;5.03;;;3.20;99.90;;;;;;5115072;27;20024;-90
2021/03/18 07:42:04;;;;;;;7.85;3.95;;;3.20;99.90;;;;;;5114375;28;20031;-88
2021/03/18 07:44:33;;;;;;;8.98;4.57;;;3.30;99.90;;;;;;5111618;28;20024;-91
2021/03/18 07:47:00;;;;;;;7.60;3.95;;;3.40;99.90;;;;;;5104678;28;20024;-90
2021/03/18 07:49:37;;;;;;;11.80;5.00;;;3.50;99.90;;;;;;5106502;28;20050;-88
2021/03/18 07:52:06;;;;;;;12.98;5.55;;;3.50;99.90;;;;;;5107749;28;20016;-92
2021/03/18 07:54:32;;;;;;;10.85;5.38;;;3.60;99.90;;;;;;5113103;28;20039;-89
2021/03/18 07:56:58;;;;;;;10.70;4.80;;;3.70;99.90;;;;;;5106515;28;20012;-92
2021/03/18 07:59:32;;;;;;;11.63;5.63;;;3.80;99.90;;;;;;5097155;28;20035;-93
2021/03/18 08:05:40;;;;;;;12.80;6.05;;;3.90;99.90;;;;;;5188692;22;20067;-92
2021/03/18 08:08:08;;;;;;;11.95;6.47;;;3.90;99.90;;;;;;5099677;28;20050;-88
2021/03/18 08:10:44;;;;;;;12.15;6.28;;;4.00;99.90;;;;;;5081102;28;20027;-93
2021/03/18 08:13:10;;;;;;;12.20;6.53;;;4.00;99.90;;;;;;5079585;28;20020;-88
2021/03/18 08:15:39;;;;;;;10.23;5.55;;;4.10;99.90;;;;;;5078407;28;20099;-90
2021/03/18 08:18:13;;;;;;;12.55;5.97;;;4.10;99.90;;;;;;5098432;28;20379;-90
2021/03/18 08:20:42;;;;;;;10.93;5.38;;;4.20;99.90;;;;;;5078498;28;20020;-89
2021/03/18 08:23:26;;;;;;;8.88;5.25;;;4.20;99.90;;;;;;5077847;28;20073;-87
2021/03/18 08:25:56;;;;;;;11.85;5.57;;;4.20;99.90;;;;;;5078932;28;20059;-88
2021/03/18 08:29:01;;;;;;;10.93;5.28;;;4.30;99.90;;;;;;5080958;28;20023;-93
2021/03/18 08:31:30;;;;;;;9.13;4.32;;;4.30;99.90;;;;;;5080785;28;20031;-89
2021/03/18 08:33:57;;;;;;;12.75;5.15;;;4.40;99.90;;;;;;5080510;28;20081;-90
2021/03/18 08:36:37;;;;;;;9.55;4.65;;;4.40;99.90;;;;;;5095636;28;20035;-89
2021/03/18 08:39:08;;;;;;;9.50;5.13;;;4.50;99.90;;;;;;5077653;28;20485;-88
2021/03/18 08:41:42;;;;;;;13.40;5.35;;;4.50;99.90;;;;;;5077670;28;20025;-89
2021/03/18 08:44:19;;;;;;;12.48;5.25;;;4.50;99.90;;;;;;5079082;28;20036;-90
2021/03/18 08:46:57;;;;;;;11.63;5.90;;;4.60;99.90;;;;;;5079064;28;20024;-89
2021/03/18 08:49:33;;;;;;;10.75;4.70;;;4.70;99.90;;;;;;5079153;28;20028;-88
2021/03/18 08:52:04;;;;;;;11.23;6.40;;;4.80;99.90;;;;;;5077781;28;20032;-87
2021/03/18 08:54:39;;;;;;;10.80;5.85;;;4.90;99.90;;;;;;5077401;28;20020;-88
2021/03/18 08:57:09;;;;;;;11.50;6.15;;;5.00;99.90;;;;;;5078110;28;20054;-89
2021/03/18 08:59:36;;;;;;;12.68;6.78;;;5.10;99.90;;;;;;5077017;28;20449;-89
2021/03/18 09:02:08;;;;;;;14.30;6.55;;;5.20;99.90;;;;;;5077883;28;20107;-91
2021/03/18 09:04:38;;;;;;;14.93;7.53;;;5.30;99.90;;;;;;5077277;28;20060;-87
2021/03/18 09:07:11;;;;;;;15.75;6.72;;;5.50;99.90;;;;;;5058037;28;20482;-90
2021/03/18 09:09:37;;;;;;;13.77;7.05;;;5.60;99.90;;;;;;5072682;28;20028;-91
2021/03/18 09:12:04;;;;;;;13.68;7.90;;;5.60;99.90;;;;;;5076997;28;20053;-89
2021/03/18 09:14:30;;;;;;;12.15;7.55;;;5.60;99.90;;;;;;5076320;28;20024;-88
2021/03/18 09:17:07;;;;;;;12.48;7.60;;;5.70;99.90;;;;;;5076647;28;20477;-87
2021/03/18 09:20:14;;;;;;;15.05;7.18;;;5.70;99.90;;;;;;5076769;28;20028;-91
2021/03/18 09:22:40;;;;;;;18.17;7.53;;;5.70;99.90;;;;;;5095251;28;20024;-90
2021/03/18 09:25:06;;;;;;;13.70;6.95;;;5.80;99.90;;;;;;5076779;28;20024;-87
2021/03/18 09:27:38;;;;;;;20.30;9.90;;;5.80;99.90;;;;;;5077036;28;20016;-90
2021/03/18 09:30:22;;;;;;;20.35;8.88;;;5.80;99.90;;;;;;5079102;28;20030;-89
2021/03/18 09:32:52;;;;;;;14.05;7.50;;;5.90;99.90;;;;;;5077310;28;20027;-94
2021/03/18 09:35:19;;;;;;;15.38;8.15;;;6.00;99.90;;;;;;5079353;28;20031;-91
2021/03/18 09:37:48;;;;;;;23.30;9.50;;;5.90;99.90;;;;;;5077386;28;20024;-91
2021/03/18 09:45:28;;;;;;;18.17;8.23;;;6.20;99.90;;;;;;4561667;22;20056;-90
2021/03/18 09:47:54;;;;;;;22.10;10.20;;;6.30;99.90;;;;;;5040305;28;20140;-90
2021/03/18 09:50:23;;;;;;;20.77;8.75;;;6.30;99.90;;;;;;5054538;28;20379;-91
2021/03/18 09:52:50;;;;;;;19.25;7.70;;;6.40;99.90;;;;;;5054933;28;20104;-91
2021/03/18 09:55:18;;;;;;;17.52;6.45;;;6.40;99.90;;;;;;5041712;28;20048;-92
2021/03/18 09:57:51;;;;;;;15.05;5.80;;;6.50;99.90;;;;;;5062129;28;20066;-88
2021/03/18 10:00:17;;;;;;;21.10;6.47;;;6.60;99.90;;;;;;5060637;28;20039;-88
2021/03/18 10:02:43;;;;;;;19.90;6.13;;;6.70;99.90;;;;;;5043773;28;20025;-89
2021/03/18 10:05:09;;;;;;;12.82;5.07;;;6.70;99.90;;;;;;5055816;28;20079;-89
2021/03/18 10:07:34;;;;;;;19.88;5.68;;;6.80;99.90;;;;;;5059182;28;20021;-87
2021/03/18 10:10:04;;;;;;;18.73;6.32;;;6.90;99.90;;;;;;5060860;28;20123;-87
2021/03/18 10:12:31;;;;;;;19.30;6.43;;;6.90;99.90;;;;;;5041562;28;20017;-89
2021/03/18 10:15:04;;;;;;;18.95;6.00;;;7.00;99.90;;;;;;5056801;28;20033;-91
2021/03/18 10:17:37;;;;;;;16.23;6.70;;;7.00;99.90;;;;;;5055232;28;20065;-91
2021/03/18 10:20:10;;;;;;;;;;;7.10;99.90;;;;;;5055228;28;20075;-90
2021/03/18 10:22:40;;;;;;;14.85;5.30;;;7.20;99.90;;;;;;5056172;28;19911;-89
2021/03/18 10:25:11;;;;;;;20.17;4.57;;;7.30;99.90;;;;;;5059186;28;20474;-91
2021/03/18 10:27:54;;;;;;;18.58;5.90;;;7.50;99.90;;;;;;5059351;28;20380;-92
2021/03/18 10:30:23;;;;;;;15.63;6.10;;;7.70;99.90;;;;;;5054886;28;20485;-92
2021/03/18 10:33:04;;;;;;;20.50;6.35;;;7.70;99.90;;;;;;5069178;28;20024;-91
2021/03/18 10:35:31;;;;;;;15.05;5.32;;;7.80;99.90;;;;;;5069860;28;20378;-89
2021/03/18 10:38:04;;;;;;;19.27;6.30;;;7.70;99.90;;;;;;5056650;28;20082;-88
2021/03/18 10:40:39;;;;;;;18.73;5.35;;;7.70;99.90;;;;;;5057410;28;20123;-89
2021/03/18 10:43:30;;;;;;;14.52;5.22;;;7.80;99.90;;;;;;5062841;28;20066;-90
2021/03/18 10:46:27;;;;;;;20.85;6.35;;;7.90;99.90;;;;;;5058388;28;20056;-88
2021/03/18 10:48:55;;;;;;;17.10;5.60;;;8.20;99.90;;;;;;5065766;28;20036;-91
2021/03/18 10:51:21;;;;;;;15.73;5.18;;;8.70;99.90;;;;;;5056944;28;20033;-90
2021/03/18 10:53:49;;;;;;;15.80;5.10;;;9.00;99.90;;;;;;5055609;28;20040;-89
2021/03/18 10:56:18;;;;;;;15.48;4.18;;;9.20;99.90;;;;;;5060609;28;20390;-88
2021/03/18 10:58:44;;;;;;;16.00;4.35;;;9.30;99.90;;;;;;5056019;28;20548;-89
2021/03/18 11:01:21;;;;;;;11.77;4.15;;;9.20;99.90;;;;;;5056385;28;20106;-90
2021/03/18 11:03:50;;;;;;;17.63;4.57;;;9.10;99.90;;;;;;5061792;28;20040;-89
2021/03/18 11:06:25;;;;;;;16.17;4.68;;;9.10;99.90;;;;;;5051694;28;20028;-87
2021/03/18 11:08:53;;;;;;;15.43;4.53;;;9.00;99.90;;;;;;5059558;28;20033;-89
2021/03/18 11:11:25;;;;;;;13.10;4.38;;;8.80;99.90;;;;;;5043544;28;20025;-89
2021/03/18 11:14:03;;;;;;;18.17;5.65;;;8.60;99.90;;;;;;5058148;28;20525;-94
2021/03/18 11:16:28;;;;;;;21.40;4.93;;;8.60;99.90;;;;;;5038425;28;20032;-90
2021/03/18 11:19:00;;;;;;;22.10;6.05;;;8.60;99.90;;;;;;5056745;28;20013;-91
2021/03/18 11:21:34;;;;;;;15.13;4.75;;;8.60;99.90;;;;;;5027761;28;20029;-89
2021/03/18 11:24:09;;;;;;;18.83;4.78;;;8.60;99.90;;;;;;5056974;28;20028;-87
2021/03/18 11:26:36;;;;;;;19.40;5.05;;;8.50;99.90;;;;;;5051017;28;20501;-89
2021/03/18 11:29:12;;;;;;;15.25;4.07;;;8.40;99.90;;;;;;5057887;28;20154;-90
2021/03/18 11:31:41;;;;;;;14.93;4.50;;;8.30;99.90;;;;;;5057565;28;20025;-88
2021/03/18 11:34:19;;;;;;;15.95;4.40;;;8.20;99.90;;;;;;5057364;28;20027;-88
2021/03/18 11:36:47;;;;;;;12.63;4.43;;;8.10;99.90;;;;;;5058296;28;20025;-88
2021/03/18 11:39:14;;;;;;;16.77;4.43;;;8.00;99.90;;;;;;5060416;28;20107;-90
2021/03/18 11:41:39;;;;;;;17.67;5.13;;;8.00;99.90;;;;;;5058493;28;20512;-89
2021/03/18 11:44:06;;;;;;;14.55;4.05;;;8.00;99.90;;;;;;5051309;28;20087;-90
2021/03/18 11:46:32;;;;;;;18.83;4.45;;;8.00;99.90;;;;;;5052695;28;20438;-88
2021/03/18 11:48:58;;;;;;;15.20;4.00;;;8.00;99.90;;;;;;5051752;28;20021;-88
2021/03/18 11:51:23;;;;;;;12.88;4.55;;;7.90;99.90;;;;;;5052563;28;20402;-89
2021/03/18 11:53:50;;;;;;;17.83;3.63;;;8.00;99.90;;;;;;5052865;28;20022;-87
2021/03/18 11:56:17;;;;;;;14.88;3.63;;;7.90;99.90;;;;;;5053927;28;20025;-89
2021/03/18 11:58:43;;;;;;;12.60;3.13;;;7.90;99.90;;;;;;5057378;28;20482;-89
2021/03/18 12:01:09;;;;;;;15.82;4.07;;;7.70;99.90;;;;;;5057248;28;20029;-90
2021/03/18 12:03:35;;;;;;;14.20;3.83;;;7.70;99.90;;;;;;5070804;28;20020;-90
2021/03/18 12:06:00;;;;;;;14.45;3.38;;;7.60;99.90;;;;;;5059044;28;20020;-90
2021/03/18 12:08:26;;;;;;;15.15;4.97;;;7.60;99.90;;;;;;5055263;28;20025;-91
2021/03/18 12:10:52;;;;;;;19.52;5.13;;;7.60;99.90;;;;;;5054772;28;20028;-89
2021/03/18 12:13:18;;;;;;;18.17;4.10;;;7.70;99.90;;;;;;5056640;28;20425;-89
2021/03/18 12:15:44;;;;;;;13.65;4.07;;;7.70;99.90;;;;;;5054308;28;20028;-89
2021/03/18 12:18:09;;;;;;;16.27;3.75;;;8.00;99.90;;;;;;5053922;28;20387;-89
2021/03/18 12:20:35;;;;;;;12.68;3.75;;;8.30;99.90;;;;;;5058185;28;20026;-90
2021/03/18 12:23:04;;;;;;;14.38;3.95;;;8.60;99.90;;;;;;5057714;28;20079;-89
2021/03/18 12:25:29;;;;;;;10.85;3.13;;;9.10;99.90;;;;;;5061714;28;20037;-88
2021/03/18 12:27:55;;;;;;;14.05;3.30;;;9.40;99.90;;;;;;5052737;28;20386;-88
2021/03/18 12:30:24;;;;;;;11.13;2.55;;;9.60;99.90;;;;;;5058954;28;20037;-89
2021/03/18 12:32:52;;;;;;;12.50;2.75;;;9.70;99.90;;;;;;5058023;28;20029;-88
2021/03/18 12:35:19;;;;;;;12.40;3.15;;;9.70;99.90;;;;;;5054552;28;20025;-88
2021/03/18 12:37:46;;;;;;;10.35;2.60;;;9.60;99.90;;;;;;5054508;28;20039;-85
2021/03/18 12:40:15;;;;;;;11.27;2.65;;;9.50;99.90;;;;;;5061130;28;20033;-90
2021/03/18 12:42:42;;;;;;;13.80;2.55;;;9.40;99.90;;;;;;5066724;28;20056;-88
2021/03/18 12:45:10;;;;;;;10.15;3.08;;;9.40;99.90;;;;;;5055071;28;20088;-90
2021/03/18 12:47:38;;;;;;;11.13;2.25;;;9.40;99.90;;;;;;5053960;28;20021;-87
2021/03/18 12:50:06;;;;;;;15.85;2.60;;;9.30;99.90;;;;;;5061430;28;20021;-90
2021/03/18 12:52:32;;;;;;;12.57;2.53;;;9.20;99.90;;;;;;5070225;28;20025;-88
2021/03/18 12:54:58;;;;;;;9.23;2.63;;;9.20;99.90;;;;;;5053182;28;20106;-90
2021/03/18 12:57:23;;;;;;;12.50;2.85;;;9.30;99.90;;;;;;5051557;28;20016;-88
2021/03/18 12:59:49;;;;;;;9.18;2.63;;;9.40;99.90;;;;;;5054837;28;20033;-89
2021/03/18 13:02:15;;;;;;;9.65;2.05;;;9.30;99.90;;;;;;5056353;28;20073;-88
2021/03/18 13:04:41;;;;;;;13.80;2.70;;;9.30;99.90;;;;;;5066551;28;20614;-90
2021/03/18 13:07:07;;;;;;;7.20;1.88;;;9.20;99.90;;;;;;5052729;28;20040;-88
2021/03/18 13:09:33;;;;;;;10.20;2.00;;;9.10;99.90;;;;;;5049675;28;20025;-88
2021/03/18 13:11:58;;;;;;;9.45;1.70;;;9.00;99.90;;;;;;5049394;28;20387;-86
2021/03/18 13:14:24;;;;;;;9.27;2.60;;;9.10;99.90;;;;;;5041275;28;20036;-87
2021/03/18 13:16:50;;;;;;;7.72;1.50;;;9.30;99.90;;;;;;5049622;28;20028;-88
2021/03/18 13:19:15;;;;;;;10.88;2.03;;;9.30;99.90;;;;;;5049982;28;20036;-87
2021/03/18 13:21:42;;;;;;;7.47;1.90;;;9.40;99.90;;;;;;5050574;28;20550;-86
2021/03/18 13:24:08;;;;;;;9.65;2.15;;;9.50;99.90;;;;;;5049682;28;20131;-86
2021/03/18 13:26:34;;;;;;;11.30;2.33;;;9.50;99.90;;;;;;5057133;28;20116;-88
2021/03/18 13:29:00;;;;;;;12.85;2.70;;;9.60;99.90;;;;;;5052830;28;20025;-86
2021/03/18 13:31:26;;;;;;;9.10;1.90;;;9.70;99.90;;;;;;5051254;28;20423;-87
2021/03/18 13:33:53;;;;;;;7.38;1.60;;;9.90;99.90;;;;;;5060042;28;20025;-88
2021/03/18 13:36:18;;;;;;;11.25;1.95;;;10.30;99.90;;;;;;5051502;28;20057;-87
2021/03/18 13:38:44;;;;;;;12.82;2.97;;;10.70;99.90;;;;;;5051500;28;20068;-87
2021/03/18 13:41:10;;;;;;;11.32;2.47;;;10.70;99.90;;;;;;5051786;28;20075;-88
2021/03/18 13:43:36;;;;;;;11.45;2.55;;;10.60;99.90;;;;;;5052069;28;20372;-89
2021/03/18 13:46:04;;;;;;;17.42;2.65;;;10.40;99.90;;;;;;5053238;28;20521;-88
2021/03/18 13:48:30;;;;;;;10.15;2.63;;;10.20;99.90;;;;;;5048438;28;20017;-86
2021/03/18 13:50:57;;;;;;;12.18;2.25;;;10.50;99.90;;;;;;5048095;28;20387;-85
2021/03/18 13:53:23;;;;;;;11.65;2.53;;;10.70;99.90;;;;;;5047526;28;20048;-88
2021/03/18 13:55:49;;;;;;;13.27;2.40;;;10.70;99.90;;;;;;5046322;28;20577;-84
2021/03/18 13:58:15;;;;;;;9.05;1.85;;;10.70;99.90;;;;;;5048174;28;20029;-87
2021/03/18 14:00:41;;;;;;;10.32;2.75;;;10.70;99.90;;;;;;5046909;28;20786;-84
2021/03/18 14:03:07;;;;;;;12.55;2.78;;;11.30;99.90;;;;;;5047338;28;20033;-85
2021/03/18 14:05:34;;;;;;;10.02;2.40;;;12.10;99.90;;;;;;5048327;28;20155;-88
2021/03/18 14:08:00;;;;;;;9.57;1.95;;;13.00;99.90;;;;;;5048735;28;20078;-87
2021/03/18 14:10:27;;;;;;;10.70;2.38;;;14.00;99.90;;;;;;5045888;28;20025;-90
2021/03/18 14:12:53;;;;;;;10.88;2.05;;;14.70;99.90;;;;;;5049825;28;20028;-87
2021/03/18 14:15:20;;;;;;;9.52;2.53;;;15.20;99.90;;;;;;5047097;28;20508;-89
2021/03/18 14:17:47;;;;;;;7.47;1.88;;;15.40;97.20;;;;;;5049062;28;20025;-88
2021/03/18 14:20:19;;;;;;;7.55;2.10;;;15.40;96.90;;;;;;5045447;28;20017;-87
2021/03/18 14:22:45;;;;;;;7.50;1.90;;;15.60;96.30;;;;;;5041415;28;20025;-86
2021/03/18 14:25:11;;;;;;;7.78;1.88;;;15.70;96.20;;;;;;5048452;28;20674;-86
2021/03/18 14:27:43;;;;;;;9.38;1.88;;;15.80;95.00;;;;;;5047572;28;20096;-87
2021/03/18 14:30:10;;;;;;;7.55;1.85;;;15.90;94.20;;;;;;5048555;28;20025;-86
2021/03/18 14:32:37;;;;;;;8.23;1.67;;;16.10;93.10;;;;;;5048630;28;20036;-86
2021/03/18 14:35:05;;;;;;;7.38;2.15;;;16.20;93.00;;;;;;5047904;28;20736;-87
2021/03/18 14:37:31;;;;;;;8.50;2.00;;;16.20;91.10;;;;;;5047280;28;20020;-88
2021/03/18 14:39:56;;;;;;;7.65;1.80;;;15.90;91.40;;;;;;5054999;28;20071;-87
2021/03/18 14:42:23;;;;;;;8.50;1.83;;;15.40;91.80;;;;;;5047978;28;20029;-87
2021/03/18 14:44:49;;;;;;;8.05;1.77;;;14.70;92.20;;;;;;5055950;28;20064;-87
2021/03/18 14:47:15;;;;;;;7.65;1.63;;;14.00;92.90;;;;;;5055928;28;20021;-87
2021/03/18 14:49:40;;;;;;;7.18;1.77;;;13.40;93.20;;;;;;5050571;28;20067;-88
2021/03/18 14:52:06;;;;;;;7.60;2.05;;;12.70;92.80;;;;;;5051544;28;20025;-86
2021/03/18 14:54:32;;;;;;;8.73;1.75;;;12.10;93.20;;;;;;5050669;28;20037;-86
2021/03/18 14:56:58;;;;;;;7.95;2.05;;;11.50;93.70;;;;;;5051101;28;20028;-87
2021/03/18 14:59:23;;;;;;;7.43;1.58;;;11.20;94.00;;;;;;5051444;28;20029;-88
2021/03/18 15:01:49;;;;;;;7.78;1.25;;;10.80;94.40;;;;;;5050597;28;20021;-87
2021/03/18 15:04:15;;;;;;;8.32;1.50;;;10.60;94.90;;;;;;5050696;28;20056;-87
2021/03/18 15:06:40;;;;;;;10.80;2.20;;;10.40;95.10;;;;;;5050060;28;20040;-88
2021/03/18 15:09:07;;;;;;;11.45;2.30;;;10.20;95.20;;;;;;5056349;28;20031;-87
2021/03/18 15:11:33;;;;;;;9.32;1.95;;;10.10;95.40;;;;;;5050641;28;20107;-87
2021/03/18 15:13:59;;;;;;;9.13;1.40;;;9.90;95.90;;;;;;5050111;28;20817;-87
2021/03/18 15:16:25;;;;;;;9.68;2.08;;;9.70;96.20;;;;;;5055542;28;20031;-88
2021/03/18 15:18:50;;;;;;;9.35;1.60;;;9.60;96.60;;;;;;5052334;28;20025;-87
2021/03/18 15:21:16;;;;;;;8.98;1.60;;;9.40;97.10;;;;;;5050980;28;20025;-88
2021/03/18 15:23:42;;;;;;;5.90;1.63;;;9.40;97.50;;;;;;5051643;28;20040;-86
2021/03/18 15:26:07;;;;;;;9.77;1.63;;;9.40;97.70;;;;;;5052265;28;20040;-86
2021/03/18 15:28:34;;;;;;;6.78;1.60;;;9.40;98.00;;;;;;5052995;28;20021;-88
2021/03/18 15:31:00;;;;;;;4.88;1.20;;;9.50;98.20;;;;;;5049677;28;20033;-88